createdAt,value
2023-02-27T00:00:19.341Z,100617.54
2023-02-27T00:02:52.205Z,100617.67
2023-02-27T00:05:23.247Z,100618.65
2023-02-27T00:07:51.535Z,100611.54
2023-02-27T00:10:22.246Z,100614.93
2023-02-27T00:12:52.577Z,100625.80
2023-02-27T00:15:21.029Z,100630.71
2023-02-27T00:17:59.857Z,100626.59
2023-02-27T00:20:29.591Z,100625.77
2023-02-27T00:23:00.357Z,100633.90
2023-02-27T00:25:33.980Z,100636.52
2023-02-27T00:28:07.063Z,100642.74
2023-02-27T00:30:39.360Z,100651.11
2023-02-27T00:33:14.764Z,100656.98
2023-02-27T00:35:45.720Z,100662.12
2023-02-27T00:38:52.785Z,100664.11
2023-02-27T00:41:21.580Z,100666.81
2023-02-27T00:43:49.863Z,100664.05
2023-02-27T00:46:20.099Z,100669.55
2023-02-27T00:48:54.400Z,100680.61
2023-02-27T00:51:23.070Z,100688.64
2023-02-27T00:53:51.761Z,100694.63
2023-02-27T00:56:20.986Z,100694.14
2023-02-27T00:58:49.776Z,100703.22
2023-02-27T01:01:18.282Z,100706.11
2023-02-27T01:03:46.818Z,100708.24
2023-02-27T01:06:15.203Z,100712.11
2023-02-27T01:08:43.799Z,100719.38
2023-02-27T01:11:13.403Z,100729.87
2023-02-27T01:13:41.918Z,100731.98
2023-02-27T01:16:10.818Z,100736.21
2023-02-27T01:18:40.897Z,100739.68
2023-02-27T01:21:09.283Z,100743.55
2023-02-27T01:23:37.879Z,100746.88
2023-02-27T01:26:06.283Z,100749.92
2023-02-27T01:28:35.650Z,100752.29
2023-02-27T01:31:04.137Z,100747.17
2023-02-27T01:33:34.259Z,100757.64
2023-02-27T01:36:02.638Z,100750.58
2023-02-27T01:38:31.638Z,100750.37
2023-02-27T01:41:02.067Z,100750.65
2023-02-27T01:43:32.799Z,100745.59
2023-02-27T01:46:04.487Z,100748.45
2023-02-27T01:48:35.108Z,100744.05
2023-02-27T01:51:19.366Z,100742.23
2023-02-27T01:53:49.470Z,100741.92
2023-02-27T01:56:22.560Z,100743.96
2023-02-27T01:58:52.342Z,100749.76
2023-02-27T02:01:22.140Z,100753.77
2023-02-27T02:04:11.797Z,100748.48
2023-02-27T02:06:41.370Z,100751.77
2023-02-27T02:09:10.614Z,100751.85
2023-02-27T02:11:39.365Z,100754.73
2023-02-27T02:14:11.229Z,100757.80
2023-02-27T02:17:12.828Z,100762.34
2023-02-27T02:20:12.405Z,100764.20
2023-02-27T02:23:14.819Z,100771.45
2023-02-27T02:26:51.291Z,100780.27
2023-02-27T02:29:31.042Z,100784.31
2023-02-27T02:32:12.128Z,100787.08
2023-02-27T02:35:06.187Z,100790.33
2023-02-27T02:37:44.085Z,100797.04
2023-02-27T02:40:27.610Z,100798.83
2023-02-27T02:43:08.994Z,100801.68
2023-02-27T02:45:53.429Z,100806.70
2023-02-27T02:48:28.395Z,100806.63
2023-02-27T02:51:00.087Z,100810.65
2023-02-27T02:53:37.366Z,100812.83
2023-02-27T02:56:26.814Z,100815.94
2023-02-27T02:59:11.174Z,100818.61
2023-02-27T03:01:49.499Z,100818.57
2023-02-27T03:04:28.247Z,100821.88
2023-02-27T03:07:20.505Z,100831.02
2023-02-27T03:10:03.710Z,100834.88
2023-02-27T03:12:34.023Z,100833.36
2023-02-27T03:15:09.246Z,100835.64
2023-02-27T03:18:00.870Z,100842.98
2023-02-27T03:20:43.179Z,100843.34
2023-02-27T03:23:17.716Z,100847.27
2023-02-27T03:25:49.262Z,100851.77
2023-02-27T03:28:22.448Z,100854.77
2023-02-27T03:30:56.003Z,100857.55
2023-02-27T03:33:33.663Z,100855.52
2023-02-27T03:36:21.903Z,100857.88
2023-02-27T03:39:28.984Z,100861.58
2023-02-27T03:42:11.699Z,100864.27
2023-02-27T03:45:01.089Z,100862.08
2023-02-27T03:47:29.867Z,100866.39
2023-02-27T03:49:58.757Z,100870.31
2023-02-27T03:52:27.344Z,100869.87
2023-02-27T03:55:08.333Z,100871.23
2023-02-27T03:57:37.424Z,100866.52
2023-02-27T04:00:12.722Z,100867.55
2023-02-27T04:02:50.791Z,100871.27
2023-02-27T04:05:21.945Z,100877.48
2023-02-27T04:08:11.189Z,100876.66
2023-02-27T04:10:53.921Z,100880.29
2023-02-27T04:14:00.094Z,100881.24
2023-02-27T04:16:42.490Z,100883.73
2023-02-27T04:19:29.475Z,100883.71
2023-02-27T04:22:31.828Z,100884.16
2023-02-27T04:25:07.428Z,100892.98
2023-02-27T04:27:58.850Z,100898.64
2023-02-27T04:30:42.876Z,100899.29
2023-02-27T04:33:34.019Z,100901.27
2023-02-27T04:36:17.870Z,100906.67
2023-02-27T04:38:49.736Z,100911.98
2023-02-27T04:41:22.311Z,100914.05
2023-02-27T04:43:50.696Z,100917.84
2023-02-27T04:46:19.887Z,100919.46
2023-02-27T04:49:23.089Z,100921.19
2023-02-27T04:51:57.051Z,100928.98
2023-02-27T04:54:48.112Z,100931.02
2023-02-27T04:57:23.763Z,100937.36
2023-02-27T04:59:53.790Z,100943.11
2023-02-27T05:02:25.532Z,100947.11
2023-02-27T05:04:59.554Z,100952.00
2023-02-27T05:07:35.171Z,100954.08
2023-02-27T05:10:09.403Z,100958.95
2023-02-27T05:12:44.783Z,100963.84
2023-02-27T05:15:17.542Z,100967.68
2023-02-27T05:17:55.423Z,100976.60
2023-02-27T05:20:24.929Z,100980.81
2023-02-27T05:22:59.812Z,100986.58
2023-02-27T05:25:37.602Z,100991.98
2023-02-27T05:28:23.639Z,100991.77
2023-02-27T05:31:21.972Z,100993.11
2023-02-27T05:34:26.510Z,100997.27
2023-02-27T05:37:04.715Z,100999.77
2023-02-27T05:39:36.392Z,100998.80
2023-02-27T05:42:07.866Z,101001.77
2023-02-27T05:44:39.918Z,101002.11
2023-02-27T05:47:10.938Z,101002.88
2023-02-27T05:49:43.221Z,101004.44
2023-02-27T05:52:13.025Z,101002.75
2023-02-27T05:55:04.714Z,101005.64
2023-02-27T05:57:44.098Z,101008.79
2023-02-27T06:00:42.579Z,101011.33
2023-02-27T06:03:11.644Z,101013.73
2023-02-27T06:05:40.366Z,101017.60
2023-02-27T06:08:08.847Z,101019.55
2023-02-27T06:10:43.782Z,101018.04
2023-02-27T06:13:12.670Z,101017.80
2023-02-27T06:15:40.872Z,101015.70
2023-02-27T06:18:14.050Z,101027.48
2023-02-27T06:20:42.775Z,101035.14
2023-02-27T06:23:11.636Z,101034.99
2023-02-27T06:25:42.467Z,101027.84
2023-02-27T06:28:11.296Z,101029.08
2023-02-27T06:30:40.500Z,101027.81
2023-02-27T06:33:09.660Z,101024.75
2023-02-27T06:35:38.487Z,101020.61
2023-02-27T06:38:06.961Z,101026.16
2023-02-27T06:40:36.143Z,101030.67
2023-02-27T06:43:05.290Z,101033.99
2023-02-27T06:45:33.482Z,101041.71
2023-02-27T06:48:02.205Z,101042.79
2023-02-27T06:50:30.776Z,101045.89
2023-02-27T06:52:59.293Z,101053.17
2023-02-27T06:55:27.753Z,101061.88
2023-02-27T06:57:56.130Z,101059.48
2023-02-27T07:00:25.222Z,101054.10
2023-02-27T07:02:53.604Z,101055.77
2023-02-27T07:05:23.832Z,101062.36
2023-02-27T07:07:52.624Z,101064.93
2023-02-27T07:10:21.208Z,101066.41
2023-02-27T07:12:49.735Z,101067.63
2023-02-27T07:15:19.098Z,101067.73
2023-02-27T07:17:47.407Z,101075.29
2023-02-27T07:20:20.202Z,101082.92
2023-02-27T07:22:48.852Z,101086.58
2023-02-27T07:25:17.123Z,101091.84
2023-02-27T07:27:46.427Z,101096.83
2023-02-27T07:30:15.588Z,101102.80
2023-02-27T07:32:44.318Z,101099.05
2023-02-27T07:35:12.695Z,101097.18
2023-02-27T07:37:41.098Z,101093.77
2023-02-27T07:40:12.610Z,101086.34
2023-02-27T07:42:40.932Z,101084.33
2023-02-27T07:45:10.307Z,101079.82
2023-02-27T07:47:39.838Z,101081.40
2023-02-27T07:50:10.014Z,101088.38
2023-02-27T07:52:43.429Z,101089.93
2023-02-27T07:55:14.148Z,101089.67
2023-02-27T07:57:45.358Z,101095.65
2023-02-27T08:00:14.901Z,101092.31
2023-02-27T08:02:43.386Z,101093.55
2023-02-27T08:05:12.024Z,101089.20
2023-02-27T08:07:41.012Z,101088.05
2023-02-27T08:10:12.569Z,101086.42
2023-02-27T08:12:40.949Z,101091.34
2023-02-27T08:15:10.310Z,101094.88
2023-02-27T08:17:38.632Z,101101.81
2023-02-27T08:20:13.916Z,101103.98
2023-02-27T08:22:42.769Z,101105.02
2023-02-27T08:25:14.260Z,101107.92
2023-02-27T08:27:42.701Z,101106.35
2023-02-27T08:30:12.370Z,101110.08
2023-02-27T08:32:41.006Z,101117.85
2023-02-27T08:35:10.277Z,101119.39
2023-02-27T08:37:38.955Z,101121.29
2023-02-27T08:40:09.296Z,101117.16
2023-02-27T08:42:40.871Z,101114.19
2023-02-27T08:45:12.124Z,101113.52
2023-02-27T08:47:43.056Z,101114.59
2023-02-27T08:50:15.639Z,101116.75
2023-02-27T08:52:43.929Z,101120.89
2023-02-27T08:55:12.518Z,101119.34
2023-02-27T08:57:41.703Z,101117.69
2023-02-27T09:00:10.953Z,101116.56
2023-02-27T09:02:39.478Z,101112.58
2023-02-27T09:05:08.452Z,101119.70
2023-02-27T09:07:37.533Z,101114.54
2023-02-27T09:10:07.437Z,101111.54
2023-02-27T09:12:38.340Z,101107.02
2023-02-27T09:15:15.469Z,101100.23
2023-02-27T09:17:44.112Z,101100.73
2023-02-27T09:20:13.017Z,101094.87
2023-02-27T09:22:41.795Z,101099.63
2023-02-27T09:25:13.100Z,101105.65
2023-02-27T09:27:43.371Z,101109.06
2023-02-27T09:30:14.781Z,101110.84
2023-02-27T09:32:43.643Z,101107.58
2023-02-27T09:35:14.252Z,101106.95
2023-02-27T09:37:43.986Z,101106.40
2023-02-27T09:40:25.653Z,101111.68
2023-02-27T09:42:58.448Z,101107.56
2023-02-27T09:45:28.865Z,101113.93
2023-02-27T09:48:32.599Z,101113.23
2023-02-27T09:51:01.040Z,101114.48
2023-02-27T09:53:41.711Z,101116.48
2023-02-27T09:56:26.936Z,101117.36
2023-02-27T09:58:55.602Z,101119.25
2023-02-27T10:01:41.285Z,101118.04
2023-02-27T10:04:28.402Z,101122.95
2023-02-27T10:07:17.483Z,101118.92
2023-02-27T10:09:58.852Z,101119.35
2023-02-27T10:12:33.274Z,101119.91
2023-02-27T10:15:16.612Z,101122.57
2023-02-27T10:17:50.285Z,101123.58
2023-02-27T10:20:28.941Z,101122.48
2023-02-27T10:23:00.187Z,101129.16
2023-02-27T10:25:32.071Z,101131.04
2023-02-27T10:28:09.233Z,101130.26
2023-02-27T10:30:37.666Z,101135.80
2023-02-27T10:33:35.540Z,101139.50
2023-02-27T10:36:20.783Z,101141.85
2023-02-27T10:39:17.068Z,101143.52
2023-02-27T10:41:45.698Z,101145.08
2023-02-27T10:44:15.971Z,101143.45
2023-02-27T10:46:44.466Z,101142.93
2023-02-27T10:49:20.817Z,101142.75
2023-02-27T10:52:09.757Z,101136.57
2023-02-27T10:54:39.131Z,101137.25
2023-02-27T10:57:20.225Z,101132.21
2023-02-27T10:59:53.526Z,101130.19
2023-02-27T11:02:25.261Z,101128.85
2023-02-27T11:04:57.647Z,101130.45
2023-02-27T11:07:38.046Z,101132.67
2023-02-27T11:10:17.001Z,101132.91
2023-02-27T11:13:05.384Z,101133.29
2023-02-27T11:15:36.552Z,101130.09
2023-02-27T11:18:21.042Z,101135.08
2023-02-27T11:20:51.120Z,101130.42
2023-02-27T11:23:21.825Z,101133.06
2023-02-27T11:25:50.642Z,101130.77
2023-02-27T11:28:30.802Z,101132.58
2023-02-27T11:31:04.005Z,101140.09
2023-02-27T11:33:36.298Z,101143.53
2023-02-27T11:36:05.706Z,101143.13
2023-02-27T11:38:55.350Z,101145.59
2023-02-27T11:41:31.138Z,101146.49
2023-02-27T11:44:00.874Z,101147.96
2023-02-27T11:46:46.679Z,101143.89
2023-02-27T11:49:48.396Z,101141.00
2023-02-27T11:52:26.910Z,101140.16
2023-02-27T11:54:56.532Z,101140.52
2023-02-27T11:57:30.417Z,101143.48
2023-02-27T12:00:06.715Z,101146.73
2023-02-27T12:03:00.744Z,101148.30
2023-02-27T12:05:44.617Z,101153.10
2023-02-27T12:08:32.246Z,101151.55
2023-02-27T12:11:14.129Z,101156.05
2023-02-27T12:13:47.257Z,101160.20
2023-02-27T12:16:28.110Z,101157.61
2023-02-27T12:19:08.780Z,101156.98
2023-02-27T12:21:40.433Z,101162.08
2023-02-27T12:24:23.760Z,101160.36
2023-02-27T12:27:09.446Z,101158.77
2023-02-27T12:29:41.924Z,101163.10
2023-02-27T12:32:16.146Z,101167.64
2023-02-27T12:34:50.264Z,101166.47
2023-02-27T12:37:25.045Z,101169.86
2023-02-27T12:39:55.147Z,101171.38
2023-02-27T12:42:26.253Z,101170.36
2023-02-27T12:45:16.040Z,101175.90
2023-02-27T12:48:03.723Z,101180.16
2023-02-27T12:50:42.186Z,101181.98
2023-02-27T12:53:32.068Z,101185.23
2023-02-27T12:56:07.229Z,101191.89
2023-02-27T12:58:56.378Z,101196.45
2023-02-27T13:01:45.851Z,101194.45
2023-02-27T13:04:18.280Z,101198.10
2023-02-27T13:07:22.297Z,101197.77
2023-02-27T13:10:03.739Z,101203.98
2023-02-27T13:12:49.094Z,101202.48
2023-02-27T13:15:45.559Z,101204.41
2023-02-27T13:18:42.223Z,101210.14
2023-02-27T13:21:57.182Z,101206.88
2023-02-27T13:24:30.216Z,101204.65
2023-02-27T13:27:14.929Z,101203.24
2023-02-27T13:29:47.827Z,101202.02
2023-02-27T13:32:42.851Z,101203.38
2023-02-27T13:35:33.791Z,101209.81
2023-02-27T13:38:30.078Z,101208.44
2023-02-27T13:40:59.991Z,101206.38
2023-02-27T13:43:51.322Z,101210.32
2023-02-27T13:46:26.857Z,101210.55
2023-02-27T13:49:04.769Z,101213.48
2023-02-27T13:51:36.835Z,101211.07
2023-02-27T13:54:17.085Z,101212.88
2023-02-27T13:56:52.125Z,101205.63
2023-02-27T13:59:30.548Z,101204.89
2023-02-27T14:02:11.424Z,101206.56
2023-02-27T14:04:43.275Z,101210.11
2023-02-27T14:07:12.679Z,101212.77
2023-02-27T14:09:43.077Z,101214.73
2023-02-27T14:12:44.004Z,101209.73
2023-02-27T14:15:17.756Z,101216.87
2023-02-27T14:18:12.688Z,101222.64
2023-02-27T14:20:49.586Z,101224.05
2023-02-27T14:23:27.790Z,101225.84
2023-02-27T14:26:17.946Z,101223.67
2023-02-27T14:28:55.939Z,101220.33
2023-02-27T14:31:28.376Z,101220.16
2023-02-27T14:33:59.472Z,101222.94
2023-02-27T14:36:30.796Z,101226.45
2023-02-27T14:39:35.753Z,101223.38
2023-02-27T14:42:26.155Z,101225.52
2023-02-27T14:44:54.568Z,101227.67
2023-02-27T14:47:25.998Z,101231.84
2023-02-27T14:49:56.412Z,101235.48
2023-02-27T14:52:32.284Z,101235.48
2023-02-27T14:55:15.207Z,101240.06
2023-02-27T14:58:00.124Z,101246.98
2023-02-27T15:00:50.880Z,101249.55
2023-02-27T15:03:23.552Z,101251.63
2023-02-27T15:05:53.535Z,101252.79
2023-02-27T15:08:27.086Z,101253.08
2023-02-27T15:10:56.068Z,101257.80
2023-02-27T15:13:36.855Z,101264.90
2023-02-27T15:16:23.529Z,101266.45
2023-02-27T15:18:55.009Z,101267.23
2023-02-27T15:21:24.953Z,101271.25
2023-02-27T15:23:55.153Z,101275.77
2023-02-27T15:26:25.475Z,101275.70
2023-02-27T15:28:54.372Z,101277.16
2023-02-27T15:31:24.224Z,101282.39
2023-02-27T15:33:53.435Z,101287.75
2023-02-27T15:36:24.786Z,101292.17
2023-02-27T15:39:21.183Z,101291.92
2023-02-27T15:42:01.259Z,101303.06
2023-02-27T15:44:43.246Z,101311.30
2023-02-27T15:47:13.917Z,101318.48
2023-02-27T15:49:42.361Z,101324.11
2023-02-27T15:52:17.598Z,101325.51
2023-02-27T15:55:01.240Z,101333.09
2023-02-27T15:57:32.179Z,101339.27
2023-02-27T16:00:00.772Z,101343.80
2023-02-27T16:02:31.428Z,101342.30
2023-02-27T16:05:02.651Z,101348.68
2023-02-27T16:07:33.381Z,101351.30
2023-02-27T16:10:06.361Z,101356.81
2023-02-27T16:12:37.239Z,101365.41
2023-02-27T16:15:29.071Z,101364.69
2023-02-27T16:18:01.209Z,101370.52
2023-02-27T16:20:42.998Z,101376.56
2023-02-27T16:23:24.285Z,101381.83
2023-02-27T16:26:23.382Z,101384.23
2023-02-27T16:29:04.776Z,101391.86
2023-02-27T16:31:37.801Z,101392.38
2023-02-27T16:34:20.053Z,101394.52
2023-02-27T16:36:58.483Z,101399.61
2023-02-27T16:39:27.483Z,101398.02
2023-02-27T16:41:56.936Z,101402.86
2023-02-27T16:44:25.776Z,101401.98
2023-02-27T16:46:54.982Z,101406.79
2023-02-27T16:49:28.607Z,101408.16
2023-02-27T16:51:59.009Z,101409.38
2023-02-27T16:54:27.392Z,101409.64
2023-02-27T16:56:55.669Z,101406.38
2023-02-27T16:59:40.128Z,101408.29
2023-02-27T17:02:15.882Z,101414.00
2023-02-27T17:04:47.030Z,101420.08
2023-02-27T17:07:16.716Z,101421.58
2023-02-27T17:09:48.267Z,101424.23
2023-02-27T17:12:16.574Z,101423.59
2023-02-27T17:14:45.776Z,101428.48
2023-02-27T17:17:14.169Z,101431.11
2023-02-27T17:19:42.613Z,101438.92
2023-02-27T17:22:11.969Z,101442.84
2023-02-27T17:24:40.642Z,101447.16
2023-02-27T17:27:09.732Z,101447.69
2023-02-27T17:29:38.931Z,101452.27
2023-02-27T17:32:09.122Z,101453.73
2023-02-27T17:34:42.046Z,101453.89
2023-02-27T17:37:10.422Z,101458.30
2023-02-27T17:39:39.416Z,101460.05
2023-02-27T17:42:08.221Z,101463.80
2023-02-27T17:44:38.138Z,101474.67
2023-02-27T17:47:07.229Z,101477.13
2023-02-27T17:49:36.728Z,101481.14
2023-02-27T17:52:07.875Z,101482.48
2023-02-27T17:54:37.589Z,101485.90
2023-02-27T17:57:09.451Z,101491.66
2023-02-27T17:59:40.546Z,101494.67
2023-02-27T18:02:11.300Z,101496.17
2023-02-27T18:04:40.349Z,101496.74
2023-02-27T18:07:08.707Z,101501.79
2023-02-27T18:09:39.445Z,101506.64
2023-02-27T18:12:07.927Z,101509.13
2023-02-27T18:14:36.820Z,101509.20
2023-02-27T18:17:12.061Z,101516.02
2023-02-27T18:19:42.078Z,101518.86
2023-02-27T18:22:10.928Z,101522.46
2023-02-27T18:24:39.561Z,101520.08
2023-02-27T18:27:14.978Z,101523.01
2023-02-27T18:30:00.281Z,101528.89
2023-02-27T18:32:46.590Z,101533.76
2023-02-27T18:35:21.711Z,101541.23
2023-02-27T18:37:53.586Z,101551.01
2023-02-27T18:40:25.349Z,101554.05
2023-02-27T18:42:55.669Z,101557.83
2023-02-27T18:45:24.870Z,101563.42
2023-02-27T18:47:54.377Z,101563.67
2023-02-27T18:50:23.643Z,101563.27
2023-02-27T18:52:51.961Z,101567.85
2023-02-27T18:55:20.339Z,101570.98
2023-02-27T18:57:51.180Z,101572.23
2023-02-27T19:00:22.129Z,101573.38
2023-02-27T19:02:50.627Z,101572.05
2023-02-27T19:05:19.312Z,101572.84
2023-02-27T19:07:49.620Z,101579.50
2023-02-27T19:10:18.088Z,101581.80
2023-02-27T19:12:46.386Z,101583.84
2023-02-27T19:15:14.660Z,101585.62
2023-02-27T19:17:43.348Z,101582.48
2023-02-27T19:20:16.720Z,101588.66
2023-02-27T19:22:45.548Z,101590.76
2023-02-27T19:25:13.926Z,101589.92
2023-02-27T19:27:45.068Z,101585.18
2023-02-27T19:30:14.570Z,101585.75
2023-02-27T19:32:42.962Z,101586.73
2023-02-27T19:35:17.771Z,101583.32
2023-02-27T19:37:48.421Z,101595.15
2023-02-27T19:40:17.216Z,101596.05
2023-02-27T19:42:46.002Z,101599.50
2023-02-27T19:45:14.280Z,101599.17
2023-02-27T19:47:44.281Z,101599.97
2023-02-27T19:50:12.909Z,101606.39
2023-02-27T19:52:43.311Z,101607.31
2023-02-27T19:55:12.514Z,101606.86
2023-02-27T19:57:41.898Z,101607.38
2023-02-27T20:00:13.426Z,101611.52
2023-02-27T20:02:42.054Z,101613.33
2023-02-27T20:05:12.282Z,101617.98
2023-02-27T20:07:42.620Z,101622.42
2023-02-27T20:10:13.139Z,101625.50
2023-02-27T20:12:44.141Z,101633.60
2023-02-27T20:15:15.840Z,101637.89
2023-02-27T20:17:46.373Z,101638.84
2023-02-27T20:20:14.757Z,101641.91
2023-02-27T20:22:46.619Z,101640.98
2023-02-27T20:25:15.001Z,101645.79
2023-02-27T20:27:44.198Z,101640.58
2023-02-27T20:30:16.526Z,101644.37
2023-02-27T20:32:46.532Z,101648.46
2023-02-27T20:35:15.900Z,101648.90
2023-02-27T20:37:44.492Z,101648.67
2023-02-27T20:40:13.575Z,101648.71
2023-02-27T20:42:41.770Z,101655.46
2023-02-27T20:45:10.465Z,101654.19
2023-02-27T20:47:42.121Z,101654.48
2023-02-27T20:50:11.767Z,101655.73
2023-02-27T20:52:40.731Z,101660.50
2023-02-27T20:55:10.192Z,101662.39
2023-02-27T20:57:39.038Z,101661.04
2023-02-27T21:00:12.431Z,101663.77
2023-02-27T21:02:41.101Z,101664.84
2023-02-27T21:05:09.851Z,101667.31
2023-02-27T21:07:38.571Z,101672.16
2023-02-27T21:10:10.030Z,101674.97
2023-02-27T21:12:38.517Z,101678.00
2023-02-27T21:15:08.474Z,101679.39
2023-02-27T21:17:37.022Z,101683.86
2023-02-27T21:20:07.004Z,101685.88
2023-02-27T21:22:36.545Z,101685.40
2023-02-27T21:25:05.673Z,101699.61
2023-02-27T21:27:33.914Z,101698.30
2023-02-27T21:30:02.719Z,101696.40
2023-02-27T21:32:31.300Z,101696.84
2023-02-27T21:35:00.291Z,101697.52
2023-02-27T21:37:31.720Z,101690.65
2023-02-27T21:40:02.779Z,101691.21
2023-02-27T21:42:32.185Z,101687.89
2023-02-27T21:45:41.642Z,101689.01
2023-02-27T21:48:11.565Z,101692.46
2023-02-27T21:50:40.675Z,101691.27
2023-02-27T21:53:09.233Z,101689.20
2023-02-27T21:55:38.530Z,101688.34
2023-02-27T21:58:10.599Z,101687.73
2023-02-27T22:00:40.460Z,101691.34
2023-02-27T22:03:10.036Z,101689.94
2023-02-27T22:05:42.070Z,101691.64
2023-02-27T22:08:10.608Z,101694.73
2023-02-27T22:10:48.989Z,101698.40
2023-02-27T22:13:18.401Z,101699.70
2023-02-27T22:15:46.790Z,101702.30
2023-02-27T22:18:15.291Z,101701.54
2023-02-27T22:20:43.752Z,101705.76
2023-02-27T22:23:12.020Z,101705.78
2023-02-27T22:25:41.463Z,101710.64
2023-02-27T22:28:11.095Z,101711.38
2023-02-27T22:30:39.360Z,101713.92
2023-02-27T22:33:08.005Z,101718.70
2023-02-27T22:35:38.350Z,101715.17
2023-02-27T22:38:06.722Z,101713.20
2023-02-27T22:40:40.621Z,101713.88
2023-02-27T22:43:11.414Z,101715.58
2023-02-27T22:45:48.349Z,101711.27
2023-02-27T22:48:19.387Z,101708.28
2023-02-27T22:50:57.330Z,101708.45
2023-02-27T22:53:25.872Z,101708.12
2023-02-27T22:55:55.639Z,101712.95
2023-02-27T22:58:24.888Z,101710.88
2023-02-27T23:00:53.989Z,101711.98
2023-02-27T23:03:22.777Z,101708.54
2023-02-27T23:05:52.493Z,101704.23
2023-02-27T23:08:21.590Z,101704.54
2023-02-27T23:10:53.975Z,101704.50
2023-02-27T23:13:22.351Z,101704.57
2023-02-27T23:15:50.813Z,101704.44
2023-02-27T23:18:23.096Z,101705.08
2023-02-27T23:20:53.423Z,101700.46
2023-02-27T23:23:21.697Z,101700.66
2023-02-27T23:25:50.090Z,101703.23
2023-02-27T23:28:18.667Z,101708.18
2023-02-27T23:30:47.048Z,101704.39
2023-02-27T23:33:15.429Z,101698.48
2023-02-27T23:35:44.045Z,101700.55
2023-02-27T23:38:12.501Z,101698.48
2023-02-27T23:40:41.564Z,101695.61
2023-02-27T23:43:28.516Z,101704.64
2023-02-27T23:45:57.047Z,101710.48
2023-02-27T23:48:25.479Z,101713.14
2023-02-27T23:50:57.707Z,101718.00
2023-02-27T23:53:27.157Z,101715.19
2023-02-27T23:55:56.052Z,101715.25
2023-02-27T23:58:24.538Z,101710.77
